createdAt,value
2022-09-10T00:02:16.066Z,7.60
2022-09-10T00:04:43.109Z,7.60
2022-09-10T00:07:09.954Z,7.50
2022-09-10T00:09:37.940Z,7.40
2022-09-10T00:12:05.006Z,7.30
2022-09-10T00:14:31.929Z,7.30
2022-09-10T00:16:58.743Z,7.30
2022-09-10T00:19:25.650Z,7.30
2022-09-10T00:21:52.584Z,7.30
2022-09-10T00:24:19.718Z,7.30
2022-09-10T00:26:46.655Z,7.30
2022-09-10T00:29:16.079Z,7.30
2022-09-10T00:31:43.763Z,7.20
2022-09-10T00:34:12.574Z,7.10
2022-09-10T00:36:41.194Z,7.20
2022-09-10T00:39:12.005Z,7.20
2022-09-10T00:41:40.816Z,7.10
2022-09-10T00:44:39.652Z,7.00
2022-09-10T00:47:14.695Z,7.00
2022-09-10T00:49:45.731Z,7.00
2022-09-10T00:52:14.019Z,7.00
2022-09-10T00:54:44.941Z,7.00
2022-09-10T00:57:22.213Z,6.90
2022-09-10T00:59:59.337Z,6.80
2022-09-10T01:02:26.537Z,6.80
2022-09-10T01:04:55.402Z,6.80
2022-09-10T01:07:24.205Z,6.70
2022-09-10T01:09:51.498Z,6.70
2022-09-10T01:12:50.406Z,6.60
2022-09-10T01:15:20.402Z,6.50
2022-09-10T01:17:59.509Z,6.40
2022-09-10T01:20:54.325Z,6.40
2022-09-10T01:23:42.685Z,6.50
2022-09-10T01:26:31.493Z,6.50
2022-09-10T01:29:04.578Z,6.70
2022-09-10T01:31:46.008Z,6.60
2022-09-10T01:34:40.400Z,6.60
2022-09-10T01:37:14.383Z,6.50
2022-09-10T01:39:42.373Z,6.40
2022-09-10T01:42:09.306Z,6.30
2022-09-10T01:44:44.608Z,6.20
2022-09-10T01:47:32.519Z,6.20
2022-09-10T01:50:06.281Z,6.20
2022-09-10T01:52:51.730Z,6.20
2022-09-10T01:55:43.740Z,6.10
2022-09-10T01:58:34.777Z,6.20
2022-09-10T02:01:21.484Z,6.10
2022-09-10T02:03:52.564Z,6.20
2022-09-10T02:06:22.591Z,6.10
2022-09-10T02:08:53.740Z,6.10
2022-09-10T02:11:21.708Z,6.00
2022-09-10T02:13:48.899Z,6.10
2022-09-10T02:16:28.541Z,6.00
2022-09-10T02:18:56.479Z,6.00
2022-09-10T02:21:23.569Z,6.10
2022-09-10T02:23:56.560Z,5.90
2022-09-10T02:26:24.146Z,5.80
2022-09-10T02:28:51.028Z,5.80
2022-09-10T02:31:18.954Z,5.80
2022-09-10T02:33:45.927Z,5.80
2022-09-10T02:36:12.782Z,5.70
2022-09-10T02:38:40.303Z,5.50
2022-09-10T02:41:09.364Z,5.50
2022-09-10T02:43:38.323Z,5.50
2022-09-10T02:46:07.527Z,5.50
2022-09-10T02:48:34.376Z,5.60
2022-09-10T02:51:02.744Z,5.60
2022-09-10T02:53:31.840Z,5.60
2022-09-10T02:55:59.071Z,5.50
2022-09-10T02:58:25.933Z,5.40
2022-09-10T03:00:52.860Z,5.20
2022-09-10T03:03:19.698Z,5.10
2022-09-10T03:05:47.466Z,4.90
2022-09-10T03:08:14.451Z,4.90
2022-09-10T03:10:41.417Z,4.80
2022-09-10T03:13:08.393Z,4.70
2022-09-10T03:15:35.264Z,4.70
2022-09-10T03:18:02.206Z,4.70
2022-09-10T03:20:29.070Z,4.60
2022-09-10T03:22:56.671Z,4.60
2022-09-10T03:25:23.705Z,4.60
2022-09-10T03:27:50.722Z,4.80
2022-09-10T03:30:17.966Z,4.80
2022-09-10T03:32:44.824Z,4.80
2022-09-10T03:35:13.788Z,4.90
2022-09-10T03:37:40.799Z,5.00
2022-09-10T03:40:08.736Z,4.90
2022-09-10T03:42:35.743Z,4.70
2022-09-10T03:45:02.665Z,4.80
2022-09-10T03:47:29.591Z,4.90
2022-09-10T03:49:56.463Z,4.80
2022-09-10T03:52:23.290Z,4.90
2022-09-10T03:54:51.197Z,5.00
2022-09-10T03:57:18.211Z,5.20
2022-09-10T03:59:46.245Z,5.60
2022-09-10T04:02:13.337Z,5.30
2022-09-10T04:04:41.155Z,5.40
2022-09-10T04:07:09.498Z,5.40
2022-09-10T04:09:36.500Z,5.40
2022-09-10T04:12:04.180Z,5.40
2022-09-10T04:14:31.276Z,5.40
2022-09-10T04:16:59.108Z,5.40
2022-09-10T04:19:27.831Z,5.50
2022-09-10T04:21:55.180Z,5.60
2022-09-10T04:24:22.099Z,5.60
2022-09-10T04:26:49.049Z,5.60
2022-09-10T04:29:16.325Z,5.60
2022-09-10T04:31:43.349Z,5.60
2022-09-10T04:34:10.662Z,5.70
2022-09-10T04:36:37.830Z,5.90
2022-09-10T04:39:04.813Z,5.90
2022-09-10T04:41:31.788Z,5.90
2022-09-10T04:43:58.807Z,6.00
2022-09-10T04:46:26.655Z,6.10
2022-09-10T04:48:54.368Z,6.10
2022-09-10T04:51:21.475Z,6.30
2022-09-10T04:53:48.395Z,6.30
2022-09-10T04:56:15.787Z,6.40
2022-09-10T04:58:44.473Z,6.50
2022-09-10T05:01:11.779Z,6.70
2022-09-10T05:03:38.865Z,6.70
2022-09-10T05:06:06.056Z,6.90
2022-09-10T05:08:33.141Z,7.20
2022-09-10T05:11:02.986Z,7.40
2022-09-10T05:13:31.211Z,7.50
2022-09-10T05:15:59.362Z,7.50
2022-09-10T05:18:26.635Z,7.60
2022-09-10T05:20:53.770Z,7.60
2022-09-10T05:23:21.357Z,7.70
2022-09-10T05:25:48.893Z,7.80
2022-09-10T05:28:18.550Z,7.80
2022-09-10T05:30:51.245Z,7.90
2022-09-10T05:33:18.610Z,8.00
2022-09-10T05:35:49.421Z,8.10
2022-09-10T05:38:16.283Z,8.20
2022-09-10T05:40:43.566Z,8.40
2022-09-10T05:43:12.073Z,8.50
2022-09-10T05:45:39.134Z,8.70
2022-09-10T05:48:06.424Z,8.80
2022-09-10T05:50:33.456Z,9.00
2022-09-10T05:53:01.316Z,9.20
2022-09-10T05:55:31.360Z,9.60
2022-09-10T05:57:58.794Z,9.70
2022-09-10T06:00:27.036Z,9.90
2022-09-10T06:02:54.540Z,10.00
2022-09-10T06:05:23.229Z,10.20
2022-09-10T06:07:50.646Z,10.60
2022-09-10T06:10:17.584Z,11.80
2022-09-10T06:12:48.477Z,13.70
2022-09-10T06:15:16.311Z,16.10
2022-09-10T06:17:43.203Z,17.20
2022-09-10T06:20:11.269Z,17.90
2022-09-10T06:22:38.328Z,18.80
2022-09-10T06:25:06.541Z,19.90
2022-09-10T06:27:34.276Z,20.30
2022-09-10T06:30:01.724Z,21.00
2022-09-10T06:32:28.693Z,21.40
2022-09-10T06:34:55.639Z,21.60
2022-09-10T06:37:22.991Z,21.60
2022-09-10T06:39:50.354Z,22.10
2022-09-10T06:42:17.367Z,21.80
2022-09-10T06:44:45.466Z,22.90
2022-09-10T06:48:06.864Z,22.80
2022-09-10T06:50:04.775Z,23.50
2022-09-10T06:52:31.847Z,23.10
2022-09-10T06:54:59.564Z,22.60
2022-09-10T06:57:27.222Z,23.20
2022-09-10T06:59:54.139Z,23.60
2022-09-10T07:02:21.135Z,23.40
2022-09-10T07:04:48.309Z,23.50
2022-09-10T07:07:15.266Z,22.60
2022-09-10T07:09:42.594Z,23.20
2022-09-10T07:12:17.999Z,23.90
2022-09-10T07:14:45.342Z,23.80
2022-09-10T07:17:12.610Z,24.10
2022-09-10T07:19:39.973Z,23.80
2022-09-10T07:22:07.190Z,23.00
2022-09-10T07:24:34.435Z,23.50
2022-09-10T07:27:01.399Z,23.60
2022-09-10T07:29:31.339Z,22.90
2022-09-10T07:31:58.424Z,22.40
2022-09-10T07:34:25.513Z,21.90
2022-09-10T07:36:52.555Z,22.10
2022-09-10T07:39:24.933Z,22.80
2022-09-10T07:41:52.775Z,23.70
2022-09-10T07:44:19.863Z,24.60
2022-09-10T07:46:46.696Z,24.70
2022-09-10T07:49:13.617Z,25.20
2022-09-10T07:51:40.807Z,25.00
2022-09-10T07:54:08.081Z,25.60
2022-09-10T07:56:35.666Z,25.60
2022-09-10T07:59:03.128Z,26.00
2022-09-10T08:01:31.817Z,26.30
2022-09-10T08:03:59.046Z,26.30
2022-09-10T08:06:26.399Z,25.30
2022-09-10T08:08:53.395Z,25.80
2022-09-10T08:11:21.428Z,26.10
2022-09-10T08:13:50.740Z,27.20
2022-09-10T08:16:21.135Z,27.50
2022-09-10T08:18:49.411Z,27.00
2022-09-10T08:21:17.793Z,27.00
2022-09-10T08:23:51.730Z,27.60
2022-09-10T08:26:18.782Z,27.10
2022-09-10T08:28:48.073Z,27.10
2022-09-10T08:31:16.584Z,27.00
2022-09-10T08:33:51.906Z,27.40
2022-09-10T08:36:21.834Z,27.60
2022-09-10T08:38:50.458Z,27.30
2022-09-10T08:41:41.601Z,27.30
2022-09-10T08:44:12.672Z,27.60
2022-09-10T08:46:42.719Z,28.20
2022-09-10T08:49:15.728Z,28.80
2022-09-10T08:51:53.271Z,28.50
2022-09-10T08:54:31.332Z,28.60
2022-09-10T08:57:00.547Z,28.60
2022-09-10T08:59:44.775Z,28.40
2022-09-10T09:02:54.302Z,28.50
2022-09-10T09:05:23.522Z,27.50
2022-09-10T09:07:52.281Z,28.00
2022-09-10T09:10:25.469Z,27.50
2022-09-10T09:13:05.043Z,27.90
2022-09-10T09:15:51.886Z,28.60
2022-09-10T09:18:25.137Z,28.20
2022-09-10T09:20:57.866Z,27.90
2022-09-10T09:24:02.798Z,27.80
2022-09-10T09:26:36.923Z,27.10
2022-09-10T09:29:19.187Z,26.00
2022-09-10T09:31:54.149Z,26.40
2022-09-10T09:34:29.061Z,26.30
2022-09-10T09:37:01.240Z,27.10
2022-09-10T09:39:59.945Z,26.80
2022-09-10T09:42:43.383Z,26.50
2022-09-10T09:45:23.507Z,27.10
2022-09-10T09:47:51.187Z,27.10
2022-09-10T09:50:18.690Z,26.90
2022-09-10T09:52:46.907Z,26.30
2022-09-10T09:55:48.241Z,26.50
2022-09-10T09:58:21.909Z,25.50
2022-09-10T10:00:53.910Z,25.60
2022-09-10T10:03:25.695Z,25.30
2022-09-10T10:06:04.024Z,24.80
2022-09-10T10:08:41.652Z,24.10
2022-09-10T10:11:09.445Z,23.60
2022-09-10T10:13:42.789Z,24.70
2022-09-10T10:16:35.782Z,26.00
2022-09-10T10:19:02.860Z,26.30
2022-09-10T10:21:30.901Z,27.40
2022-09-10T10:23:58.335Z,27.90
2022-09-10T10:26:32.179Z,27.90
2022-09-10T10:29:00.064Z,27.10
2022-09-10T10:31:45.756Z,26.80
2022-09-10T10:34:15.927Z,25.50
2022-09-10T10:36:59.852Z,26.20
2022-09-10T10:39:45.349Z,25.80
2022-09-10T10:42:27.669Z,26.40
2022-09-10T10:44:57.596Z,26.80
2022-09-10T10:48:15.521Z,26.90
2022-09-10T10:51:09.642Z,26.60
2022-09-10T10:53:58.388Z,26.50
2022-09-10T10:56:36.280Z,27.10
2022-09-10T10:59:15.301Z,26.40
2022-09-10T11:01:48.619Z,25.50
2022-09-10T11:04:36.785Z,25.80
2022-09-10T11:07:27.497Z,26.20
2022-09-10T11:10:12.634Z,26.00
2022-09-10T11:12:47.556Z,27.00
2022-09-10T11:15:29.561Z,27.50
2022-09-10T11:18:27.382Z,28.30
2022-09-10T11:21:22.473Z,28.40
2022-09-10T11:24:04.617Z,28.30
2022-09-10T11:27:06.596Z,27.00
2022-09-10T11:29:45.171Z,26.70
2022-09-10T11:32:42.725Z,26.20
2022-09-10T11:35:23.907Z,26.90
2022-09-10T11:38:13.107Z,27.90
2022-09-10T11:40:52.733Z,27.50
2022-09-10T11:43:37.931Z,26.90
2022-09-10T11:46:15.212Z,26.40
2022-09-10T11:48:44.735Z,26.10
2022-09-10T11:51:32.137Z,26.10
2022-09-10T11:54:01.277Z,26.30
2022-09-10T11:56:53.015Z,27.30
2022-09-10T11:59:37.421Z,26.80
2022-09-10T12:02:42.057Z,26.00
2022-09-10T12:05:30.476Z,27.60
2022-09-10T12:08:29.753Z,27.80
2022-09-10T12:11:09.489Z,27.00
2022-09-10T12:13:39.506Z,26.00
2022-09-10T12:16:19.631Z,25.90
2022-09-10T12:18:50.409Z,25.60
2022-09-10T12:21:20.268Z,25.00
2022-09-10T12:23:48.276Z,24.50
2022-09-10T12:26:22.560Z,25.40
2022-09-10T12:28:49.815Z,25.60
2022-09-10T12:31:20.106Z,25.60
2022-09-10T12:33:47.472Z,25.60
2022-09-10T12:36:35.633Z,26.00
2022-09-10T12:39:24.516Z,25.70
2022-09-10T12:41:51.638Z,25.20
2022-09-10T12:44:38.017Z,24.30
2022-09-10T12:47:17.307Z,24.10
2022-09-10T12:49:55.684Z,23.90
2022-09-10T12:52:37.614Z,23.40
2022-09-10T12:55:21.796Z,23.40
2022-09-10T12:57:58.760Z,23.40
2022-09-10T13:00:30.782Z,23.30
2022-09-10T13:03:20.294Z,23.70
2022-09-10T13:05:51.663Z,23.00
2022-09-10T13:08:50.770Z,22.40
2022-09-10T13:11:23.819Z,21.60
2022-09-10T13:14:02.112Z,20.60
2022-09-10T13:16:29.053Z,20.10
2022-09-10T13:19:19.688Z,20.00
2022-09-10T13:21:51.117Z,19.60
2022-09-10T13:24:38.939Z,19.70
2022-09-10T13:27:18.185Z,19.70
2022-09-10T13:30:10.608Z,19.90
2022-09-10T13:33:05.213Z,20.00
2022-09-10T13:35:59.206Z,19.90
2022-09-10T13:38:48.058Z,19.70
2022-09-10T13:41:38.331Z,19.50
2022-09-10T13:44:50.768Z,19.70
2022-09-10T13:47:28.295Z,19.60
2022-09-10T13:50:05.873Z,19.60
2022-09-10T13:52:37.752Z,19.50
2022-09-10T13:55:08.217Z,19.40
2022-09-10T13:57:36.958Z,19.50
2022-09-10T14:00:18.962Z,19.40
2022-09-10T14:02:53.705Z,19.30
2022-09-10T14:05:44.691Z,19.10
2022-09-10T14:08:29.037Z,19.10
2022-09-10T14:11:14.002Z,18.90
2022-09-10T14:14:01.109Z,18.80
2022-09-10T14:16:52.473Z,18.90
2022-09-10T14:19:30.974Z,18.90
2022-09-10T14:21:58.570Z,18.90
2022-09-10T14:24:40.064Z,18.60
2022-09-10T14:27:22.844Z,18.70
2022-09-10T14:29:50.466Z,18.60
2022-09-10T14:32:27.565Z,18.60
2022-09-10T14:34:55.017Z,18.60
2022-09-10T14:37:32.691Z,18.50
2022-09-10T14:40:19.249Z,18.50
2022-09-10T14:42:49.092Z,18.30
2022-09-10T14:45:39.538Z,18.40
2022-09-10T14:48:48.108Z,18.20
2022-09-10T14:51:22.798Z,18.10
2022-09-10T14:53:58.079Z,17.90
2022-09-10T14:56:33.525Z,18.00
2022-09-10T14:59:03.278Z,18.00
2022-09-10T15:01:31.310Z,17.90
2022-09-10T15:03:59.984Z,17.90
2022-09-10T15:06:27.877Z,17.90
2022-09-10T15:08:56.463Z,17.90
2022-09-10T15:11:26.674Z,17.80
2022-09-10T15:13:56.516Z,17.70
2022-09-10T15:16:24.025Z,17.60
2022-09-10T15:18:51.378Z,17.50
2022-09-10T15:21:18.774Z,17.50
2022-09-10T15:23:48.295Z,17.40
2022-09-10T15:26:17.704Z,17.40
2022-09-10T15:28:44.794Z,17.50
2022-09-10T15:31:12.121Z,17.30
2022-09-10T15:33:40.284Z,17.10
2022-09-10T15:36:07.824Z,17.00
2022-09-10T15:38:35.143Z,16.90
2022-09-10T15:41:13.070Z,16.80
2022-09-10T15:43:43.194Z,16.80
2022-09-10T15:46:16.407Z,16.70
2022-09-10T15:48:45.184Z,16.60
2022-09-10T15:51:17.681Z,16.50
2022-09-10T15:53:46.100Z,16.40
2022-09-10T15:56:14.503Z,16.40
2022-09-10T15:58:47.807Z,16.30
2022-09-10T16:01:16.421Z,16.20
2022-09-10T16:03:50.228Z,16.10
2022-09-10T16:06:20.917Z,16.00
2022-09-10T16:08:53.238Z,15.80
2022-09-10T16:11:20.885Z,15.70
2022-09-10T16:13:48.062Z,15.60
2022-09-10T16:16:20.878Z,15.40
2022-09-10T16:18:51.442Z,15.40
2022-09-10T16:21:22.457Z,15.50
2022-09-10T16:23:52.010Z,15.10
2022-09-10T16:26:21.814Z,15.10
2022-09-10T16:28:58.018Z,15.00
2022-09-10T16:31:32.850Z,14.80
2022-09-10T16:34:05.158Z,14.60
2022-09-10T16:36:34.036Z,14.50
2022-09-10T16:39:04.293Z,14.50
2022-09-10T16:41:33.092Z,14.40
2022-09-10T16:44:00.671Z,14.20
2022-09-10T16:46:28.309Z,14.10
2022-09-10T16:48:56.408Z,13.90
2022-09-10T16:51:25.148Z,13.70
2022-09-10T16:53:58.712Z,13.60
2022-09-10T16:56:26.281Z,13.40
2022-09-10T16:58:53.380Z,13.20
2022-09-10T17:01:21.453Z,12.90
2022-09-10T17:03:50.199Z,12.80
2022-09-10T17:06:19.620Z,12.60
2022-09-10T17:08:47.175Z,12.40
2022-09-10T17:11:16.256Z,12.20
2022-09-10T17:13:43.469Z,12.00
2022-09-10T17:16:13.415Z,11.90
2022-09-10T17:18:40.602Z,11.80
2022-09-10T17:21:07.746Z,11.70
2022-09-10T17:23:34.595Z,11.80
2022-09-10T17:26:07.010Z,11.70
2022-09-10T17:28:33.955Z,11.60
2022-09-10T17:31:01.376Z,11.60
2022-09-10T17:33:29.317Z,11.60
2022-09-10T17:35:58.136Z,11.60
2022-09-10T17:38:25.155Z,11.50
2022-09-10T17:41:05.062Z,11.40
2022-09-10T17:43:36.642Z,11.70
2022-09-10T17:46:07.408Z,11.80
2022-09-10T17:48:38.223Z,11.90
2022-09-10T17:51:06.611Z,11.90
2022-09-10T17:53:34.671Z,12.00
2022-09-10T17:56:03.913Z,12.00
2022-09-10T17:58:33.310Z,12.10
2022-09-10T18:01:03.498Z,12.00
2022-09-10T18:03:31.841Z,12.10
2022-09-10T18:06:08.794Z,12.10
2022-09-10T18:08:37.227Z,12.00
2022-09-10T18:11:08.014Z,11.90
2022-09-10T18:13:36.554Z,12.00
2022-09-10T18:16:09.309Z,11.80
2022-09-10T18:18:38.047Z,11.80
2022-09-10T18:21:27.196Z,11.60
2022-09-10T18:23:57.041Z,11.60
2022-09-10T18:26:26.606Z,11.40
2022-09-10T18:29:00.992Z,11.50
2022-09-10T18:31:31.679Z,11.40
2022-09-10T18:33:59.969Z,11.40
2022-09-10T18:36:29.150Z,11.40
2022-09-10T18:38:56.238Z,11.40
2022-09-10T18:41:29.178Z,11.40
2022-09-10T18:44:02.883Z,11.30
2022-09-10T18:46:31.410Z,11.40
2022-09-10T18:48:58.514Z,11.40
2022-09-10T18:51:27.628Z,11.40
2022-09-10T18:53:56.908Z,11.40
2022-09-10T18:56:25.518Z,11.40
2022-09-10T18:59:01.310Z,11.20
2022-09-10T19:01:29.993Z,11.10
2022-09-10T19:04:01.356Z,10.90
2022-09-10T19:06:30.972Z,10.90
2022-09-10T19:09:01.627Z,10.70
2022-09-10T19:11:33.649Z,10.70
2022-09-10T19:14:03.830Z,10.60
2022-09-10T19:16:34.553Z,10.50
2022-09-10T19:19:06.396Z,10.70
2022-09-10T19:21:36.179Z,10.70
2022-09-10T19:24:03.920Z,10.70
2022-09-10T19:26:34.268Z,10.60
2022-09-10T19:29:04.037Z,10.30
2022-09-10T19:31:33.100Z,10.30
2022-09-10T19:34:06.274Z,10.30
2022-09-10T19:36:35.981Z,10.10
2022-09-10T19:39:14.146Z,10.00
2022-09-10T19:41:43.692Z,9.90
2022-09-10T19:44:12.930Z,9.50
2022-09-10T19:46:41.151Z,9.70
2022-09-10T19:49:10.272Z,9.70
2022-09-10T19:51:39.455Z,9.70
2022-09-10T19:54:07.327Z,9.50
2022-09-10T19:56:41.406Z,9.50
2022-09-10T19:59:10.699Z,9.40
2022-09-10T20:01:41.178Z,9.30
2022-09-10T20:04:10.998Z,9.10
2022-09-10T20:06:38.955Z,9.00
2022-09-10T20:09:08.042Z,9.10
2022-09-10T20:11:35.833Z,9.30
2022-09-10T20:14:10.147Z,9.00
2022-09-10T20:16:45.385Z,9.10
2022-09-10T20:19:14.615Z,9.10
2022-09-10T20:21:42.567Z,8.90
2022-09-10T20:24:10.460Z,8.80
2022-09-10T20:26:39.532Z,8.80
2022-09-10T20:29:09.975Z,8.70
2022-09-10T20:31:37.236Z,8.60
2022-09-10T20:34:06.674Z,8.60
2022-09-10T20:36:35.633Z,8.50
2022-09-10T20:39:02.886Z,8.40
2022-09-10T20:41:32.942Z,8.30
2022-09-10T20:44:01.670Z,8.10
2022-09-10T20:46:30.667Z,8.00
2022-09-10T20:49:05.136Z,8.00
2022-09-10T20:51:37.145Z,8.00
2022-09-10T20:54:05.775Z,7.80
2022-09-10T20:56:33.262Z,7.80
2022-09-10T20:59:02.005Z,7.80
2022-09-10T21:01:33.287Z,7.80
2022-09-10T21:04:01.474Z,7.80
2022-09-10T21:06:31.351Z,7.80
2022-09-10T21:08:59.278Z,7.70
2022-09-10T21:11:29.702Z,7.70
2022-09-10T21:13:58.702Z,7.80
2022-09-10T21:16:31.783Z,7.80
2022-09-10T21:19:19.033Z,7.70
2022-09-10T21:21:48.859Z,7.20
2022-09-10T21:24:22.915Z,7.60
2022-09-10T21:26:50.282Z,7.50
2022-09-10T21:29:19.490Z,7.40
2022-09-10T21:31:47.648Z,7.30
2022-09-10T21:34:14.980Z,7.30
2022-09-10T21:36:44.081Z,7.30
2022-09-10T21:39:16.472Z,7.30
2022-09-10T21:41:49.018Z,7.30
2022-09-10T21:44:21.438Z,7.20
2022-09-10T21:46:49.435Z,7.20
2022-09-10T21:49:16.987Z,7.20
2022-09-10T21:51:44.522Z,7.00
2022-09-10T21:54:20.740Z,7.30
2022-09-10T21:56:48.431Z,7.50
2022-09-10T21:59:16.265Z,7.50
2022-09-10T22:01:45.297Z,7.50
2022-09-10T22:04:13.739Z,7.50
2022-09-10T22:06:41.065Z,7.40
2022-09-10T22:09:11.788Z,7.30
2022-09-10T22:11:42.117Z,7.50
2022-09-10T22:14:20.452Z,7.40
2022-09-10T22:16:47.663Z,7.30
2022-09-10T22:19:20.170Z,7.30
2022-09-10T22:21:47.328Z,7.20
2022-09-10T22:24:14.927Z,7.10
2022-09-10T22:26:44.486Z,7.00
2022-09-10T22:29:13.026Z,6.90
2022-09-10T22:31:40.166Z,6.80
2022-09-10T22:34:11.072Z,6.70
2022-09-10T22:36:40.682Z,6.70
2022-09-10T22:39:16.187Z,6.80
2022-09-10T22:41:43.948Z,6.70
2022-09-10T22:44:11.731Z,6.70
2022-09-10T22:46:40.377Z,6.70
2022-09-10T22:49:08.062Z,6.50
2022-09-10T22:51:37.858Z,6.60
2022-09-10T22:54:06.252Z,6.60
2022-09-10T22:56:35.972Z,6.60
2022-09-10T22:59:03.381Z,6.60
2022-09-10T23:01:36.751Z,6.70
2022-09-10T23:04:06.358Z,6.80
2022-09-10T23:06:34.950Z,6.50
2022-09-10T23:09:05.240Z,6.50
2022-09-10T23:11:32.960Z,6.50
2022-09-10T23:14:02.706Z,6.40
2022-09-10T23:16:32.690Z,6.40
2022-09-10T23:19:01.789Z,6.60
2022-09-10T23:21:31.053Z,6.70
2022-09-10T23:24:00.598Z,6.80
2022-09-10T23:26:28.737Z,6.90
2022-09-10T23:28:56.537Z,6.90
2022-09-10T23:31:28.587Z,6.80
2022-09-10T23:33:58.586Z,6.60
2022-09-10T23:36:30.122Z,6.60
2022-09-10T23:38:58.722Z,6.60
2022-09-10T23:41:25.923Z,6.60
2022-09-10T23:43:53.152Z,6.70
2022-09-10T23:46:20.364Z,6.60
2022-09-10T23:48:47.417Z,6.60
2022-09-10T23:51:16.206Z,6.50
2022-09-10T23:58:52.700Z,6.40
